Terminal Aerodrome Forecast
Issued by NWS Tampa Bay Area, FL

Home | Current Version | Previous Version | Text Only | Print | Product List | Glossary On
Versions: 1 2 3 4 5 6 7 8 9 10 11 12 13 14 15 16 17 18 19 20 21 22 23 24
000
FTUS42 KTBW 222101 AAA
TAFTPA
TAF AMD
KTPA 222101Z 2221/2318 02007KT P6SM VCTS SCT045CB BKN060
     FM230000 06006KT P6SM SCT060 BKN250
     FM230400 05004KT P6SM FEW040 BKN250
     FM231400 06006KT P6SM SCT025 BKN250
     FM231700 06007KT P6SM VCSH BKN040=

USA.gov is the U.S. government's official web portal to all federal, state and local government web resources and services.